Flight Track Log - Related Links

Times and Time Zones

All times are in EST time to prevent confusion due to time zone crossing. See the N449ND flight status page for this flight to view local times or setup timezone preferences in your user account.

Time Position Orientation Groundspeed Altitude Reporting Facility
EST Latitude Longitude Course Direction KTS MPH feet Rate Location/Type
Sun 08:41:05 PM 27.4794 -80.3542 159° South 99 114 500  Level Miami Center
Sun 08:42:05 PM 27.4608 -80.3464 160° South 83 96 3,000 500 Climbing Miami Center
Sun 08:43:05 PM 27.4442 -80.3506 193° South 70 81 1,500 -550 Descending Miami Center
Sun 08:44:05 PM 27.4233 -80.3500 179° South 70 81 1,900 450 Climbing Miami Center
Sun 08:45:00 PM 27.4916 -80.3701 159° South  Level FlightAware Approximate
Sun 08:45:05 PM 27.4103 -80.3636 223° Southwest 65 75 2,400  Level Miami Center
Sun 08:46:00 PM 27.4904 -80.3696 159° South  Level FlightAware Approximate
Sun 08:46:05 PM 27.4078 -80.3869 263° West 74 85 2,800  Level Miami Center
Sun 08:47:05 PM 27.4050 -80.4103 262° West 80 92 3,100 100 Climbing Miami Center
Sun 08:48:05 PM 27.4022 -80.4358 263° West 88 101 3,000  Descending Miami Center
Sun 08:49:05 PM 27.3997 -80.4617 264° West 88 101 3,100  Climbing Miami Center
Sun 08:50:05 PM 27.3989 -80.4897 268° West 83 96 3,000  Descending Miami Center
Sun 08:51:05 PM 27.3983 -80.5153 269° West 83 96 3,100 -100 Climbing Miami Center
Sun 08:52:05 PM 27.4103 -80.5322 308° West 76 87 2,800 -397 Descending Miami Center
Sun 08:53:06 PM 27.4353 -80.5328 359° North 77 89 2,300 -300 Descending Miami Center
Sun 08:54:05 PM 27.4667 -80.5339 358° North 91 105 2,200 -101 Descending Miami Center
Sun 08:55:05 PM 27.4897 -80.5322 North 91 105 2,100 -100 Descending Miami Center
Sun 08:56:05 PM 27.4989 -80.4997 72° East 85 98 2,000 -200 Descending Miami Center
Sun 08:57:05 PM 27.4975 -80.4669 93° East 106 122 1,700 -400 Descending Miami Center
Sun 08:58:05 PM 27.4983 -80.4389 88° East 106 122 1,200 -300 Descending Miami Center
Sun 08:59:05 PM 27.4969 -80.4061 93° East 106 122 1,100 -100 Descending Miami Center

Login

Don't have an account? Register now (free) for customized features, flight alerts, and more!